Time;durP1;ratioP1;P1;durP2;ratioP2;P2;SDS_P1;SDS_P2;PMS_P1;PMS_P2;Temp;Humidity;BMP_temperature;BMP_pressure;BME280_temperature;BME280_humidity;BME280_pressure;Samples;Min_cycle;Max_cycle;Signal;HPM_P1;HPM_P2
2021/08/02 00:00:51;;;;;;;3.10;1.50;;;;;;;;;;5026289;28;20040;-80
2021/08/02 00:03:28;;;;;;;4.20;1.83;;;;;;;;;;5016616;28;20117;-80
2021/08/02 00:05:54;;;;;;;2.70;1.55;;;;;;;;;;5016741;28;20037;-80
2021/08/02 00:08:21;;;;;;;3.00;2.08;;;;;;;;;;5017075;28;20408;-80
2021/08/02 00:10:48;;;;;;;2.45;1.38;;;;;;;;;;5016971;28;20036;-81
2021/08/02 00:13:25;;;;;;;2.10;1.48;;;;;;;;;;5016861;28;20124;-80
2021/08/02 00:15:50;;;;;;;2.80;1.75;;;;;;;;;;5016311;28;20056;-81
2021/08/02 00:18:16;;;;;;;2.83;1.30;;;;;;;;;;5036123;28;20033;-81
2021/08/02 00:20:42;;;;;;;3.08;2.05;;;;;;;;;;5019621;28;20083;-80
2021/08/02 00:23:08;;;;;;;3.60;1.88;;;;;;;;;;5019883;28;20075;-80
2021/08/02 00:25:35;;;;;;;2.55;1.50;;;;;;;;;;5019201;28;20055;-80
2021/08/02 00:28:01;;;;;;;2.40;1.40;;;;;;;;;;5017866;28;20037;-80
2021/08/02 00:30:26;;;;;;;3.40;1.77;;;;;;;;;;5032991;28;20470;-80
2021/08/02 00:32:52;;;;;;;3.13;1.90;;;;;;;;;;4999719;28;20041;-80
2021/08/02 00:35:18;;;;;;;3.55;1.70;;;;;;;;;;5042955;28;20090;-80
2021/08/02 00:38:02;;;;;;;4.18;1.73;;;;;;;;;;5019815;28;20494;-80
2021/08/02 00:40:46;;;;;;;5.25;1.90;;;;;;;;;;5051472;28;20036;-81
2021/08/02 00:43:33;;;;;;;3.75;1.67;;;;;;;;;;5032126;28;20126;-80
2021/08/02 00:45:58;;;;;;;6.47;2.75;;;;;;;;;;5032521;28;20148;-80
2021/08/02 00:48:28;;;;;;;2.92;1.63;;;;;;;;;;4998883;28;20034;-80
2021/08/02 00:50:59;;;;;;;2.22;1.75;;;;;;;;;;5007906;28;20071;-80
2021/08/02 00:53:27;;;;;;;3.30;2.25;;;;;;;;;;5019455;28;20496;-80
2021/08/02 00:55:57;;;;;;;4.90;1.88;;;;;;;;;;4999938;28;20095;-80
2021/08/02 00:58:24;;;;;;;3.50;1.90;;;;;;;;;;5015861;28;20071;-80
2021/08/02 01:00:50;;;;;;;4.10;1.77;;;;;;;;;;5014761;28;20441;-80
2021/08/02 01:03:16;;;;;;;3.00;2.03;;;;;;;;;;5015133;28;20431;-80
2021/08/02 01:05:42;;;;;;;4.50;2.13;;;;;;;;;;5015824;28;20041;-80
2021/08/02 01:08:12;;;;;;;2.90;2.03;;;;;;;;;;5015836;28;20037;-80
2021/08/02 01:10:45;;;;;;;3.20;2.05;;;;;;;;;;5017922;28;20142;-81
2021/08/02 01:13:12;;;;;;;3.17;1.90;;;;;;;;;;5019081;28;20041;-80
2021/08/02 01:15:39;;;;;;;2.70;1.77;;;;;;;;;;5018799;28;20037;-80
2021/08/02 01:18:04;;;;;;;3.33;2.10;;;;;;;;;;5018173;28;20077;-80
2021/08/02 01:20:31;;;;;;;3.85;1.85;;;;;;;;;;5018918;28;20067;-80
2021/08/02 01:22:57;;;;;;;4.03;1.92;;;;;;;;;;5018985;28;20082;-80
2021/08/02 01:25:38;;;;;;;3.05;2.28;;;;;;;;;;5002355;28;20134;-80
2021/08/02 01:28:13;;;;;;;4.72;2.38;;;;;;;;;;5015103;28;20499;-80
2021/08/02 01:30:41;;;;;;;3.65;2.25;;;;;;;;;;5032005;28;20038;-80
2021/08/02 01:33:07;;;;;;;2.70;2.03;;;;;;;;;;5028863;28;20143;-80
2021/08/02 01:35:33;;;;;;;6.65;2.45;;;;;;;;;;5018543;28;20120;-80
2021/08/02 01:37:59;;;;;;;2.78;2.10;;;;;;;;;;5003971;28;20373;-80
2021/08/02 01:40:26;;;;;;;4.82;2.20;;;;;;;;;;4993139;28;20068;-80
2021/08/02 01:42:51;;;;;;;4.50;2.20;;;;;;;;;;5016150;28;20037;-80
2021/08/02 01:45:17;;;;;;;3.33;1.83;;;;;;;;;;4998552;28;20059;-80
2021/08/02 01:47:57;;;;;;;2.50;1.90;;;;;;;;;;5008037;28;20041;-80
2021/08/02 01:50:47;;;;;;;5.20;2.03;;;;;;;;;;5014966;28;20046;-80
2021/08/02 01:53:57;;;;;;;3.80;2.45;;;;;;;;;;5014338;28;20033;-80
2021/08/02 01:56:29;;;;;;;5.20;2.65;;;;;;;;;;4974159;28;20081;-80
2021/08/02 01:59:11;;;;;;;3.35;2.10;;;;;;;;;;5021600;28;20056;-80
2021/08/02 02:01:41;;;;;;;3.85;2.28;;;;;;;;;;4984014;28;20038;-80
2021/08/02 02:04:06;;;;;;;3.28;2.13;;;;;;;;;;5011157;28;20058;-80
2021/08/02 02:06:34;;;;;;;3.50;2.30;;;;;;;;;;5011308;28;20096;-80
2021/08/02 02:09:11;;;;;;;4.60;2.63;;;;;;;;;;5011322;28;20057;-80
2021/08/02 02:11:54;;;;;;;3.20;2.22;;;;;;;;;;5011346;28;20087;-80
2021/08/02 02:14:20;;;;;;;3.80;2.25;;;;;;;;;;5010588;28;20080;-80
2021/08/02 02:16:47;;;;;;;5.45;2.60;;;;;;;;;;5010938;28;20484;-80
2021/08/02 02:19:12;;;;;;;4.47;2.60;;;;;;;;;;5014766;28;20095;-80
2021/08/02 02:21:38;;;;;;;5.45;2.53;;;;;;;;;;5030560;28;20119;-80
2021/08/02 02:24:04;;;;;;;4.57;2.03;;;;;;;;;;5014406;28;20108;-80
2021/08/02 02:26:31;;;;;;;3.72;1.83;;;;;;;;;;5010703;28;20571;-80
2021/08/02 02:28:58;;;;;;;3.75;2.28;;;;;;;;;;5003595;28;20075;-80
2021/08/02 02:31:23;;;;;;;4.63;2.58;;;;;;;;;;5009517;28;20173;-79
2021/08/02 02:33:49;;;;;;;3.50;2.28;;;;;;;;;;4994424;28;20121;-80
2021/08/02 02:36:14;;;;;;;3.88;2.33;;;;;;;;;;4994566;28;20069;-80
2021/08/02 02:38:40;;;;;;;3.80;2.40;;;;;;;;;;4994326;28;20037;-80
2021/08/02 02:41:05;;;;;;;3.25;2.22;;;;;;;;;;4994380;28;20037;-80
2021/08/02 02:43:31;;;;;;;4.45;2.50;;;;;;;;;;5016960;28;20040;-80
2021/08/02 02:45:56;;;;;;;4.93;2.40;;;;;;;;;;5017239;28;20111;-80
2021/08/02 02:48:21;;;;;;;3.78;2.28;;;;;;;;;;5003780;28;20029;-80
2021/08/02 02:50:48;;;;;;;5.18;2.85;;;;;;;;;;5014168;28;20106;-80
2021/08/02 02:53:14;;;;;;;4.22;2.95;;;;;;;;;;5013856;28;20068;-80
2021/08/02 02:55:39;;;;;;;6.22;3.05;;;;;;;;;;5013529;28;20415;-80
2021/08/02 02:58:05;;;;;;;4.05;2.63;;;;;;;;;;5013996;28;20095;-80
2021/08/02 03:00:30;;;;;;;4.22;2.20;;;;;;;;;;5014132;28;20030;-80
2021/08/02 03:02:56;;;;;;;6.22;2.85;;;;;;;;;;5002978;28;20037;-80
2021/08/02 03:05:22;;;;;;;4.10;2.28;;;;;;;;;;5017164;28;20040;-80
2021/08/02 03:07:52;;;;;;;3.35;2.55;;;;;;;;;;5016984;28;20060;-81
2021/08/02 03:10:19;;;;;;;4.38;2.35;;;;;;;;;;5000902;28;20037;-80
2021/08/02 03:12:44;;;;;;;4.38;2.60;;;;;;;;;;5030108;28;20037;-81
2021/08/02 03:15:10;;;;;;;4.68;2.30;;;;;;;;;;5013792;28;20036;-79
2021/08/02 03:17:36;;;;;;;4.53;2.50;;;;;;;;;;5013455;28;20459;-80
2021/08/02 03:20:03;;;;;;;5.25;2.20;;;;;;;;;;5030126;28;20041;-80
2021/08/02 03:22:33;;;;;;;4.75;2.42;;;;;;;;;;5015097;28;20033;-80
2021/08/02 03:25:09;;;;;;;3.85;2.28;;;;;;;;;;5031646;28;20051;-80
2021/08/02 03:27:44;;;;;;;4.28;2.78;;;;;;;;;;5014260;28;20034;-80
2021/08/02 03:30:10;;;;;;;5.65;2.60;;;;;;;;;;5034107;28;20091;-80
2021/08/02 03:32:35;;;;;;;4.97;2.67;;;;;;;;;;5001389;28;20033;-79
2021/08/02 03:35:02;;;;;;;4.00;2.28;;;;;;;;;;5033933;28;20040;-79
2021/08/02 03:37:27;;;;;;;5.03;2.47;;;;;;;;;;5033849;28;20064;-80
2021/08/02 03:39:54;;;;;;;3.90;2.42;;;;;;;;;;5033780;28;20037;-79
2021/08/02 03:42:20;;;;;;;3.53;2.33;;;;;;;;;;5017593;28;20025;-80
2021/08/02 03:44:47;;;;;;;4.45;2.80;;;;;;;;;;5051713;28;20106;-80
2021/08/02 03:47:12;;;;;;;5.20;3.00;;;;;;;;;;5033008;28;20037;-80
2021/08/02 03:49:38;;;;;;;4.82;2.55;;;;;;;;;;5017107;28;20072;-80
2021/08/02 03:52:04;;;;;;;5.07;2.40;;;;;;;;;;5010026;28;20095;-80
2021/08/02 03:54:30;;;;;;;4.53;2.25;;;;;;;;;;5019750;28;20065;-80
2021/08/02 03:56:55;;;;;;;4.78;2.75;;;;;;;;;;5037039;28;20116;-80
2021/08/02 03:59:21;;;;;;;4.35;2.72;;;;;;;;;;5020202;28;20556;-80
2021/08/02 04:01:46;;;;;;;4.85;2.50;;;;;;;;;;5018756;28;20033;-80
2021/08/02 04:04:13;;;;;;;3.97;2.17;;;;;;;;;;5031240;28;20045;-80
2021/08/02 04:06:38;;;;;;;5.07;2.60;;;;;;;;;;5036458;28;20041;-80
2021/08/02 04:09:05;;;;;;;4.22;2.00;;;;;;;;;;5019914;28;20044;-81
2021/08/02 04:11:30;;;;;;;3.78;2.20;;;;;;;;;;5036723;28;20453;-82
2021/08/02 04:13:56;;;;;;;5.25;2.50;;;;;;;;;;5020018;28;20033;-81
2021/08/02 04:16:22;;;;;;;3.85;2.65;;;;;;;;;;5020246;28;20044;-81
2021/08/02 04:18:48;;;;;;;3.78;2.28;;;;;;;;;;5019588;28;20116;-81
2021/08/02 04:21:13;;;;;;;2.63;2.03;;;;;;;;;;5014429;28;20117;-81
2021/08/02 04:23:39;;;;;;;2.70;2.10;;;;;;;;;;4996225;28;20115;-81
2021/08/02 04:26:05;;;;;;;4.57;2.53;;;;;;;;;;5019600;28;20048;-81
2021/08/02 04:28:31;;;;;;;4.03;2.75;;;;;;;;;;5029729;28;20064;-81
2021/08/02 04:30:56;;;;;;;4.47;2.65;;;;;;;;;;5000184;28;20033;-81
2021/08/02 04:33:23;;;;;;;3.83;2.15;;;;;;;;;;4999758;28;20040;-81
2021/08/02 04:35:48;;;;;;;3.25;2.25;;;;;;;;;;5032993;28;20072;-81
2021/08/02 04:38:14;;;;;;;4.00;2.22;;;;;;;;;;5015005;28;20029;-81
2021/08/02 04:40:39;;;;;;;3.53;2.33;;;;;;;;;;5033662;28;20063;-81
2021/08/02 04:43:05;;;;;;;2.63;1.80;;;;;;;;;;5035029;28;20108;-80
2021/08/02 04:45:30;;;;;;;3.00;1.92;;;;;;;;;;5035907;28;20059;-81
2021/08/02 04:47:56;;;;;;;4.00;2.38;;;;;;;;;;5005923;28;20048;-81
2021/08/02 04:50:21;;;;;;;4.63;2.45;;;;;;;;;;5012972;28;20030;-81
2021/08/02 04:52:47;;;;;;;5.20;2.15;;;;;;;;;;4995929;28;20109;-82
2021/08/02 04:55:13;;;;;;;4.43;2.50;;;;;;;;;;4996318;28;20042;-81
2021/08/02 04:57:38;;;;;;;3.85;2.08;;;;;;;;;;4996224;28;20133;-82
2021/08/02 05:00:05;;;;;;;4.05;2.20;;;;;;;;;;5012027;28;20030;-81
2021/08/02 05:02:31;;;;;;;4.75;2.20;;;;;;;;;;4996170;28;20034;-81
2021/08/02 05:04:56;;;;;;;6.80;3.35;;;;;;;;;;5018287;28;20102;-81
2021/08/02 05:07:22;;;;;;;4.00;2.20;;;;;;;;;;5018681;28;20044;-82
2021/08/02 05:09:47;;;;;;;5.10;2.33;;;;;;;;;;5035513;28;20036;-82
2021/08/02 05:12:13;;;;;;;5.40;2.47;;;;;;;;;;5017139;28;20118;-82
2021/08/02 05:14:38;;;;;;;4.68;2.13;;;;;;;;;;4986746;28;20049;-82
2021/08/02 05:17:04;;;;;;;3.50;2.03;;;;;;;;;;4995450;28;20508;-81
2021/08/02 05:19:29;;;;;;;5.45;2.70;;;;;;;;;;5011833;28;20120;-80
2021/08/02 05:21:55;;;;;;;5.07;2.70;;;;;;;;;;4998869;28;20040;-81
2021/08/02 05:24:20;;;;;;;3.35;2.58;;;;;;;;;;5015365;28;20033;-81
2021/08/02 05:26:46;;;;;;;3.83;2.10;;;;;;;;;;5007971;28;20048;-80
2021/08/02 05:29:11;;;;;;;4.35;2.10;;;;;;;;;;5006802;28;20034;-81
2021/08/02 05:31:37;;;;;;;3.45;1.92;;;;;;;;;;5031789;28;20104;-80
2021/08/02 05:34:02;;;;;;;5.45;2.20;;;;;;;;;;4998530;28;20462;-81
2021/08/02 05:36:28;;;;;;;3.85;2.28;;;;;;;;;;4998403;28;20041;-81
2021/08/02 05:38:53;;;;;;;4.60;2.25;;;;;;;;;;5012845;28;20038;-80
2021/08/02 05:41:18;;;;;;;5.47;2.55;;;;;;;;;;4995438;28;20064;-81
2021/08/02 05:43:44;;;;;;;3.70;2.28;;;;;;;;;;4995421;28;20030;-80
2021/08/02 05:46:10;;;;;;;4.13;2.40;;;;;;;;;;5033323;28;20040;-80
2021/08/02 05:48:35;;;;;;;5.70;2.55;;;;;;;;;;5017049;28;20116;-81
2021/08/02 05:51:01;;;;;;;4.45;2.85;;;;;;;;;;5018383;28;20040;-80
2021/08/02 05:53:26;;;;;;;3.88;2.65;;;;;;;;;;5022130;28;20049;-80
2021/08/02 05:55:52;;;;;;;3.72;2.10;;;;;;;;;;4998219;28;20056;-81
2021/08/02 05:58:17;;;;;;;5.82;2.75;;;;;;;;;;5012724;28;20065;-80
2021/08/02 06:00:43;;;;;;;4.43;2.97;;;;;;;;;;5010977;28;20042;-80
2021/08/02 06:03:08;;;;;;;4.78;2.50;;;;;;;;;;4994667;28;20037;-80
2021/08/02 06:05:34;;;;;;;4.45;2.97;;;;;;;;;;5027962;28;20060;-80
2021/08/02 06:07:59;;;;;;;3.42;2.30;;;;;;;;;;5025251;28;20030;-80
2021/08/02 06:10:25;;;;;;;5.47;2.65;;;;;;;;;;5030459;28;20033;-80
2021/08/02 06:12:50;;;;;;;3.90;2.55;;;;;;;;;;5002846;28;20040;-80
2021/08/02 06:15:16;;;;;;;6.30;2.90;;;;;;;;;;5014496;28;20037;-80
2021/08/02 06:17:42;;;;;;;4.65;2.58;;;;;;;;;;5019218;28;20037;-80
2021/08/02 06:20:08;;;;;;;7.25;2.47;;;;;;;;;;5006744;28;20132;-79
2021/08/02 06:22:34;;;;;;;4.70;2.38;;;;;;;;;;5043883;28;20043;-79
2021/08/02 06:24:59;;;;;;;6.00;2.40;;;;;;;;;;5034366;28;20124;-80
2021/08/02 06:27:29;;;;;;;4.63;2.60;;;;;;;;;;5017819;28;20033;-80
2021/08/02 06:29:55;;;;;;;4.38;2.10;;;;;;;;;;5017098;28;20044;-79
2021/08/02 06:32:20;;;;;;;5.63;2.40;;;;;;;;;;5032897;28;20033;-80
2021/08/02 06:34:46;;;;;;;4.35;2.22;;;;;;;;;;5031619;28;20037;-79
2021/08/02 06:37:12;;;;;;;4.82;2.50;;;;;;;;;;5013778;28;20043;-80
2021/08/02 06:39:38;;;;;;;5.32;2.45;;;;;;;;;;4997756;28;20041;-80
2021/08/02 06:42:04;;;;;;;4.65;2.22;;;;;;;;;;5013979;28;20040;-79
2021/08/02 06:44:29;;;;;;;3.70;2.45;;;;;;;;;;5030636;28;20041;-80
2021/08/02 06:46:55;;;;;;;4.40;2.20;;;;;;;;;;4997177;28;20030;-80
2021/08/02 06:49:21;;;;;;;6.00;3.40;;;;;;;;;;5013817;28;20040;-80
2021/08/02 06:51:46;;;;;;;5.65;2.83;;;;;;;;;;5016729;28;20053;-80
2021/08/02 06:54:11;;;;;;;3.95;2.33;;;;;;;;;;4995331;28;20041;-82
2021/08/02 06:56:43;;;;;;;5.00;3.00;;;;;;;;;;5013511;28;20037;-82
2021/08/02 06:59:11;;;;;;;5.72;2.58;;;;;;;;;;4982265;28;20059;-80
2021/08/02 07:01:37;;;;;;;4.55;2.33;;;;;;;;;;5015183;28;20459;-82
2021/08/02 07:04:08;;;;;;;8.10;2.60;;;;;;;;;;5021953;28;20114;-82
2021/08/02 07:06:51;;;;;;;3.35;2.72;;;;;;;;;;5012375;28;20392;-86
2021/08/02 07:09:17;;;;;;;5.15;2.70;;;;;;;;;;4988193;28;20503;-88
2021/08/02 07:11:42;;;;;;;4.43;2.38;;;;;;;;;;4986831;28;20045;-84
2021/08/02 07:14:08;;;;;;;5.47;2.80;;;;;;;;;;5016684;28;20124;-83
2021/08/02 07:16:34;;;;;;;5.00;2.88;;;;;;;;;;5022779;28;20041;-82
2021/08/02 07:18:59;;;;;;;7.82;2.90;;;;;;;;;;5023096;28;20064;-82
2021/08/02 07:21:25;;;;;;;5.18;2.60;;;;;;;;;;5011895;28;20069;-82
2021/08/02 07:23:50;;;;;;;6.32;2.78;;;;;;;;;;5003855;28;20115;-82
2021/08/02 07:26:16;;;;;;;6.80;3.20;;;;;;;;;;5005679;28;20392;-84
2021/08/02 07:28:43;;;;;;;7.57;2.90;;;;;;;;;;5003758;28;20056;-84
2021/08/02 07:31:08;;;;;;;7.72;3.00;;;;;;;;;;5019453;28;20459;-83
2021/08/02 07:33:34;;;;;;;6.15;3.08;;;;;;;;;;5022636;28;20040;-82
2021/08/02 07:35:59;;;;;;;6.70;2.40;;;;;;;;;;5011797;28;20036;-82
2021/08/02 07:38:25;;;;;;;5.18;2.03;;;;;;;;;;5003525;28;20084;-81
2021/08/02 07:40:50;;;;;;;4.28;1.80;;;;;;;;;;5007227;28;20029;-82
2021/08/02 07:43:16;;;;;;;4.90;2.33;;;;;;;;;;5018298;28;20037;-81
2021/08/02 07:45:41;;;;;;;6.00;1.80;;;;;;;;;;4995619;28;20099;-81
2021/08/02 07:48:07;;;;;;;2.55;1.50;;;;;;;;;;5018416;28;20033;-81
2021/08/02 07:50:32;;;;;;;5.90;2.20;;;;;;;;;;5034391;28;20582;-81
2021/08/02 07:52:58;;;;;;;4.72;1.85;;;;;;;;;;4990542;28;20128;-81
2021/08/02 07:55:24;;;;;;;4.85;2.47;;;;;;;;;;5047218;28;20049;-80
2021/08/02 07:57:49;;;;;;;5.18;1.75;;;;;;;;;;5003404;28;20033;-80
2021/08/02 08:00:18;;;;;;;4.47;1.80;;;;;;;;;;5019810;28;20492;-81
2021/08/02 08:02:44;;;;;;;6.10;1.90;;;;;;;;;;5004977;28;20037;-81
2021/08/02 08:05:11;;;;;;;5.85;1.92;;;;;;;;;;4986063;28;20068;-81
2021/08/02 08:07:46;;;;;;;4.72;1.90;;;;;;;;;;4986217;28;20025;-81
2021/08/02 08:10:12;;;;;;;6.00;2.33;;;;;;;;;;5018203;28;20045;-82
2021/08/02 08:12:38;;;;;;;4.45;1.65;;;;;;;;;;4999323;28;20817;-83
2021/08/02 08:15:04;;;;;;;5.03;1.98;;;;;;;;;;5020473;28;20044;-85
2021/08/02 08:17:30;;;;;;;7.97;2.03;;;;;;;;;;5007577;28;20041;-83
2021/08/02 08:19:55;;;;;;;5.05;2.13;;;;;;;;;;5009010;28;20120;-83
2021/08/02 08:22:21;;;;;;;4.35;1.70;;;;;;;;;;5019753;28;20055;-82
2021/08/02 08:24:49;;;;;;;5.80;2.30;;;;;;;;;;4999755;28;20045;-80
2021/08/02 08:27:15;;;;;;;6.65;2.05;;;;;;;;;;5000611;28;20385;-79
2021/08/02 08:29:42;;;;;;;4.53;1.85;;;;;;;;;;4999376;28;20099;-81
2021/08/02 08:32:07;;;;;;;4.70;1.80;;;;;;;;;;5016355;28;20080;-80
2021/08/02 08:34:33;;;;;;;5.40;2.05;;;;;;;;;;5017483;28;20049;-80
2021/08/02 08:36:58;;;;;;;5.00;1.90;;;;;;;;;;5016120;28;20064;-80
2021/08/02 08:39:24;;;;;;;4.43;1.60;;;;;;;;;;5011628;28;20124;-81
2021/08/02 08:41:51;;;;;;;3.20;1.42;;;;;;;;;;4996270;28;20034;-79
2021/08/02 08:44:16;;;;;;;4.90;1.65;;;;;;;;;;5001815;28;20055;-82
2021/08/02 08:46:42;;;;;;;4.90;1.55;;;;;;;;;;5016061;28;20041;-81
2021/08/02 08:49:09;;;;;;;3.75;1.70;;;;;;;;;;4996476;28;20073;-82
2021/08/02 08:51:37;;;;;;;4.10;1.50;;;;;;;;;;5017401;28;20033;-81
2021/08/02 08:54:02;;;;;;;5.07;1.90;;;;;;;;;;5003164;28;20402;-82
2021/08/02 08:56:28;;;;;;;8.52;2.10;;;;;;;;;;5032161;28;20041;-80
2021/08/02 08:58:53;;;;;;;7.80;1.70;;;;;;;;;;5011104;28;20042;-80
2021/08/02 09:01:28;;;;;;;7.88;1.83;;;;;;;;;;4979736;28;20034;-81
2021/08/02 09:03:54;;;;;;;4.80;2.15;;;;;;;;;;5000257;28;20495;-78
2021/08/02 09:06:20;;;;;;;7.63;1.88;;;;;;;;;;5028285;28;20491;-77
2021/08/02 09:08:45;;;;;;;7.13;1.73;;;;;;;;;;5001274;28;20117;-79
2021/08/02 09:11:18;;;;;;;4.47;1.80;;;;;;;;;;5018762;28;20060;-79
2021/08/02 09:13:44;;;;;;;6.50;1.90;;;;;;;;;;5018479;28;20091;-79
2021/08/02 09:16:14;;;;;;;5.25;1.55;;;;;;;;;;4999119;28;20037;-79
2021/08/02 09:18:39;;;;;;;5.18;2.17;;;;;;;;;;4999104;28;20116;-80
2021/08/02 09:21:08;;;;;;;5.47;1.63;;;;;;;;;;5009513;28;20116;-79
2021/08/02 09:23:34;;;;;;;6.55;1.48;;;;;;;;;;5016911;28;20045;-79
2021/08/02 09:26:01;;;;;;;4.78;1.45;;;;;;;;;;5012607;28;20496;-79
2021/08/02 09:28:27;;;;;;;5.82;1.75;;;;;;;;;;5015349;28;20069;-79
2021/08/02 09:31:03;;;;;;;6.60;1.27;;;;;;;;;;5015361;28;20452;-80
2021/08/02 09:33:48;;;;;;;5.10;1.92;;;;;;;;;;5014389;28;20030;-79
2021/08/02 09:36:14;;;;;;;4.18;2.08;;;;;;;;;;5018696;28;20033;-79
2021/08/02 09:38:40;;;;;;;6.80;2.00;;;;;;;;;;5018614;28;20057;-80
2021/08/02 09:41:06;;;;;;;4.55;1.90;;;;;;;;;;5015472;28;20037;-79
2021/08/02 09:43:33;;;;;;;4.50;2.05;;;;;;;;;;5019372;28;20067;-78
2021/08/02 09:46:00;;;;;;;4.57;2.00;;;;;;;;;;5018394;28;20104;-78
2021/08/02 09:48:37;;;;;;;4.18;1.85;;;;;;;;;;5000617;28;20552;-78
2021/08/02 09:51:13;;;;;;;8.20;1.95;;;;;;;;;;5045675;28;20033;-77
2021/08/02 09:53:43;;;;;;;5.70;2.05;;;;;;;;;;5031303;28;20091;-77
2021/08/02 09:56:13;;;;;;;4.03;1.80;;;;;;;;;;4983382;28;20025;-77
2021/08/02 09:58:40;;;;;;;4.38;1.80;;;;;;;;;;5026649;28;20057;-77
2021/08/02 10:01:06;;;;;;;6.03;2.25;;;;;;;;;;5014344;28;20061;-77
2021/08/02 10:03:34;;;;;;;10.98;2.03;;;;;;;;;;5019130;28;20073;-77
2021/08/02 10:06:00;;;;;;;3.75;1.60;;;;;;;;;;5014162;28;20037;-77
2021/08/02 10:08:26;;;;;;;3.42;1.67;;;;;;;;;;4982223;28;20090;-77
2021/08/02 10:10:52;;;;;;;5.63;1.55;;;;;;;;;;4997916;28;20100;-77
2021/08/02 10:13:37;;;;;;;4.20;1.40;;;;;;;;;;4997998;28;20052;-78
2021/08/02 10:16:07;;;;;;;4.47;1.40;;;;;;;;;;5002201;28;20028;-77
2021/08/02 10:18:33;;;;;;;6.80;1.77;;;;;;;;;;5025671;28;20098;-78
2021/08/02 10:21:06;;;;;;;7.40;2.55;;;;;;;;;;5017819;28;20495;-78
2021/08/02 10:23:32;;;;;;;8.10;3.38;;;;;;;;;;5020501;28;20047;-79
2021/08/02 10:25:57;;;;;;;8.95;5.03;;;;;;;;;;4984311;28;20030;-79
2021/08/02 10:28:23;;;;;;;10.10;5.18;;;;;;;;;;4998479;28;20038;-78
2021/08/02 10:31:02;;;;;;;8.98;5.00;;;;;;;;;;4981882;28;20072;-78
2021/08/02 10:33:37;;;;;;;7.60;4.72;;;;;;;;;;4997295;28;20033;-78
2021/08/02 10:36:13;;;;;;;7.80;4.25;;;;;;;;;;4997343;28;20034;-78
2021/08/02 10:38:40;;;;;;;8.60;4.75;;;;;;;;;;4997435;28;20041;-78
2021/08/02 10:41:06;;;;;;;7.95;4.50;;;;;;;;;;4998008;28;20512;-79
2021/08/02 10:43:39;;;;;;;6.40;3.97;;;;;;;;;;5013038;28;20067;-79
2021/08/02 10:46:18;;;;;;;8.40;4.10;;;;;;;;;;5014915;28;20021;-79
2021/08/02 10:48:44;;;;;;;12.55;4.22;;;;;;;;;;4995031;28;20096;-77
2021/08/02 10:51:12;;;;;;;6.57;3.78;;;;;;;;;;5021491;28;20033;-78
2021/08/02 10:53:37;;;;;;;6.32;3.17;;;;;;;;;;5033705;28;20037;-77
2021/08/02 10:56:03;;;;;;;5.38;3.42;;;;;;;;;;5013336;28;20199;-77
2021/08/02 10:58:36;;;;;;;9.07;3.03;;;;;;;;;;4997428;28;20503;-78
2021/08/02 11:01:05;;;;;;;6.00;2.33;;;;;;;;;;4994971;28;20034;-78
2021/08/02 11:03:34;;;;;;;4.90;2.40;;;;;;;;;;4994075;28;20535;-78
2021/08/02 11:06:07;;;;;;;5.05;2.90;;;;;;;;;;4994764;28;20542;-77
2021/08/02 11:08:42;;;;;;;3.90;2.40;;;;;;;;;;5010205;28;20049;-78
2021/08/02 11:11:09;;;;;;;4.63;2.40;;;;;;;;;;5021179;28;20047;-79
2021/08/02 11:13:34;;;;;;;5.85;2.63;;;;;;;;;;5002986;28;20492;-78
2021/08/02 11:16:00;;;;;;;6.13;2.25;;;;;;;;;;5001142;28;20040;-77
2021/08/02 11:18:26;;;;;;;5.28;2.70;;;;;;;;;;4997007;28;20049;-78
2021/08/02 11:20:53;;;;;;;4.35;2.10;;;;;;;;;;4997200;28;20108;-79
2021/08/02 11:23:29;;;;;;;10.05;2.67;;;;;;;;;;5007362;28;20037;-78
2021/08/02 11:26:03;;;;;;;4.22;1.75;;;;;;;;;;5015323;28;20037;-80
2021/08/02 11:28:39;;;;;;;3.42;1.90;;;;;;;;;;5039548;28;20124;-80
2021/08/02 11:31:05;;;;;;;5.90;2.08;;;;;;;;;;4989525;28;20104;-79
2021/08/02 11:33:32;;;;;;;4.70;1.75;;;;;;;;;;5024691;28;20044;-81
2021/08/02 11:35:57;;;;;;;7.07;2.03;;;;;;;;;;5016229;28;20078;-78
2021/08/02 11:38:36;;;;;;;4.53;1.90;;;;;;;;;;5009743;28;20411;-78
2021/08/02 11:41:02;;;;;;;6.07;2.42;;;;;;;;;;5003644;28;20037;-81
2021/08/02 11:43:27;;;;;;;6.07;2.30;;;;;;;;;;5014250;28;20092;-81
2021/08/02 11:45:53;;;;;;;5.20;1.50;;;;;;;;;;5014211;28;20112;-81
2021/08/02 11:48:18;;;;;;;7.45;1.90;;;;;;;;;;5011228;28;20033;-81
2021/08/02 11:50:44;;;;;;;5.53;1.50;;;;;;;;;;5007543;28;20044;-82
2021/08/02 11:53:09;;;;;;;3.67;1.77;;;;;;;;;;5016441;28;20086;-80
2021/08/02 11:55:35;;;;;;;3.95;1.70;;;;;;;;;;5032203;28;20116;-81
2021/08/02 11:58:03;;;;;;;5.88;1.50;;;;;;;;;;4985861;28;20077;-80
2021/08/02 12:00:28;;;;;;;5.47;1.80;;;;;;;;;;5018218;28;20041;-80
2021/08/02 12:03:08;;;;;;;2.85;1.17;;;;;;;;;;5000910;28;20132;-80
2021/08/02 12:05:34;;;;;;;3.13;1.60;;;;;;;;;;4999784;28;20532;-79
2021/08/02 12:08:18;;;;;;;7.10;1.60;;;;;;;;;;5016505;28;20117;-80
2021/08/02 12:10:58;;;;;;;5.75;1.50;;;;;;;;;;5017920;28;20099;-81
2021/08/02 12:13:24;;;;;;;5.10;1.70;;;;;;;;;;5025012;28;20047;-80
2021/08/02 12:15:58;;;;;;;5.93;1.40;;;;;;;;;;5016151;28;20427;-79
2021/08/02 12:18:28;;;;;;;8.73;2.20;;;;;;;;;;4996556;28;20038;-79
2021/08/02 12:20:55;;;;;;;8.02;1.73;;;;;;;;;;5014091;28;20539;-78
2021/08/02 12:23:26;;;;;;;11.15;2.30;;;;;;;;;;5016516;28;20044;-78
2021/08/02 12:25:52;;;;;;;8.63;4.38;;;;;;;;;;5003100;28;20033;-77
2021/08/02 12:28:19;;;;;;;9.10;4.60;;;;;;;;;;5032136;28;20048;-78
2021/08/02 12:30:45;;;;;;;9.18;4.40;;;;;;;;;;5028885;28;20373;-78
2021/08/02 12:33:11;;;;;;;9.63;4.43;;;;;;;;;;5027938;28;20040;-77
2021/08/02 12:35:37;;;;;;;6.82;3.20;;;;;;;;;;5003149;28;20075;-77
2021/08/02 12:38:03;;;;;;;7.43;3.65;;;;;;;;;;5019777;28;20098;-79
2021/08/02 12:40:29;;;;;;;6.63;3.33;;;;;;;;;;5018145;28;20522;-78
2021/08/02 12:42:55;;;;;;;5.45;3.05;;;;;;;;;;5006764;28;20112;-77
2021/08/02 12:45:21;;;;;;;7.05;3.03;;;;;;;;;;5018970;28;20037;-78
2021/08/02 12:47:47;;;;;;;6.78;2.80;;;;;;;;;;5004289;28;20037;-78
2021/08/02 12:50:13;;;;;;;6.72;2.85;;;;;;;;;;4979644;28;20034;-78
2021/08/02 12:52:38;;;;;;;6.88;2.40;;;;;;;;;;4997056;28;20053;-78
2021/08/02 12:55:06;;;;;;;6.43;2.45;;;;;;;;;;5012437;28;20127;-79
2021/08/02 12:57:33;;;;;;;11.15;2.70;;;;;;;;;;4995834;28;20513;-79
2021/08/02 12:59:59;;;;;;;6.72;2.45;;;;;;;;;;5010725;28;20033;-79
2021/08/02 13:02:25;;;;;;;5.05;2.38;;;;;;;;;;4999519;28;20178;-78
2021/08/02 13:04:52;;;;;;;4.05;1.88;;;;;;;;;;4999345;28;20067;-78
2021/08/02 13:07:17;;;;;;;5.55;2.15;;;;;;;;;;4999192;28;20033;-78
2021/08/02 13:09:42;;;;;;;6.65;2.10;;;;;;;;;;5032479;28;20464;-78
2021/08/02 13:12:08;;;;;;;7.72;2.83;;;;;;;;;;5015769;28;20037;-78
2021/08/02 13:14:34;;;;;;;7.65;2.65;;;;;;;;;;4999486;28;20499;-77
2021/08/02 13:16:59;;;;;;;7.75;2.63;;;;;;;;;;5031512;28;20038;-77
2021/08/02 13:19:25;;;;;;;8.63;2.60;;;;;;;;;;4983287;28;20045;-77
2021/08/02 13:21:51;;;;;;;9.32;2.72;;;;;;;;;;5015615;28;20041;-77
2021/08/02 13:27:01;;;;;;;5.20;2.58;;;;;;;;;;5031869;28;20064;-77
2021/08/02 13:29:31;;;;;;;15.75;2.92;;;;;;;;;;5004495;28;20593;-77
2021/08/02 13:31:57;;;;;;;4.95;2.25;;;;;;;;;;5018845;28;20033;-77
2021/08/02 13:34:23;;;;;;;3.97;1.90;;;;;;;;;;5018306;28;20044;-78
2021/08/02 13:36:49;;;;;;;4.13;1.67;;;;;;;;;;5017827;28;20048;-77
2021/08/02 13:39:14;;;;;;;4.35;1.50;;;;;;;;;;5021450;28;20037;-77
2021/08/02 13:41:40;;;;;;;6.45;1.35;;;;;;;;;;4995673;28;20030;-77
2021/08/02 13:44:05;;;;;;;4.60;1.52;;;;;;;;;;5000345;28;20068;-77
2021/08/02 13:46:31;;;;;;;9.25;1.98;;;;;;;;;;5034529;28;20051;-77
2021/08/02 13:49:00;;;;;;;3.80;1.48;;;;;;;;;;4999986;28;20025;-78
2021/08/02 13:51:25;;;;;;;5.82;1.40;;;;;;;;;;5015166;28;20041;-77
2021/08/02 13:53:51;;;;;;;3.42;1.75;;;;;;;;;;4998864;28;20403;-77
2021/08/02 13:56:16;;;;;;;2.35;1.17;;;;;;;;;;5014854;28;20071;-77
2021/08/02 13:58:42;;;;;;;4.07;1.63;;;;;;;;;;5014802;28;20104;-77
2021/08/02 14:01:08;;;;;;;3.63;1.50;;;;;;;;;;5001404;28;20036;-77
2021/08/02 14:03:33;;;;;;;4.05;1.10;;;;;;;;;;5033926;28;20087;-77
2021/08/02 14:05:59;;;;;;;3.65;1.92;;;;;;;;;;5017996;28;20119;-77
2021/08/02 14:08:24;;;;;;;4.13;1.45;;;;;;;;;;5006749;28;20029;-77
2021/08/02 14:10:52;;;;;;;3.00;1.10;;;;;;;;;;5009981;28;20044;-77
2021/08/02 14:13:17;;;;;;;4.60;1.58;;;;;;;;;;5034214;28;20040;-77
2021/08/02 14:15:52;;;;;;;2.70;1.17;;;;;;;;;;5009958;28;20034;-77
2021/08/02 14:18:37;;;;;;;2.28;1.20;;;;;;;;;;4996636;28;20849;-77
2021/08/02 14:21:06;;;;;;;2.50;1.02;;;;;;;;;;5030791;28;20420;-77
2021/08/02 14:23:31;;;;;;;3.20;1.40;;;;;;;;;;5030799;28;20030;-77
2021/08/02 14:25:57;;;;;;;3.28;1.83;;;;;;;;;;5033576;28;20040;-77
2021/08/02 14:28:23;;;;;;;4.75;1.67;;;;;;;;;;5033270;28;20049;-77
2021/08/02 14:30:54;;;;;;;3.13;1.40;;;;;;;;;;5000979;28;20037;-77
2021/08/02 14:33:20;;;;;;;2.17;1.40;;;;;;;;;;5034466;28;20043;-77
2021/08/02 14:35:45;;;;;;;3.25;1.27;;;;;;;;;;5017204;28;20048;-77
2021/08/02 14:38:14;;;;;;;3.55;1.15;;;;;;;;;;5020989;28;20036;-77
2021/08/02 14:40:39;;;;;;;2.92;1.13;;;;;;;;;;5011389;28;20041;-77
2021/08/02 14:43:14;;;;;;;2.38;1.00;;;;;;;;;;5011060;28;20518;-77
2021/08/02 14:45:40;;;;;;;2.72;1.15;;;;;;;;;;5010724;28;20385;-77
2021/08/02 14:48:07;;;;;;;4.20;1.13;;;;;;;;;;4997398;28;20079;-77